Time;durP1;ratioP1;P1;durP2;ratioP2;P2;SDS_P1;SDS_P2;PMS_P1;PMS_P2;Temp;Humidity;BMP_temperature;BMP_pressure;BME280_temperature;BME280_humidity;BME280_pressure;Samples;Min_cycle;Max_cycle;Signal;HPM_P1;HPM_P2
2022/01/17 00:01:38;;;;;;;;;31.25;26.50;;;;;6.16;85.60;102624.72;5036204;28;45729;-76
2022/01/17 00:04:04;;;;;;;;;24.25;22.00;;;;;6.18;84.76;102616.88;5019592;28;45529;-76
2022/01/17 00:06:30;;;;;;;;;29.25;26.50;;;;;6.18;85.38;102623.06;5040097;28;45579;-76
2022/01/17 00:08:55;;;;;;;;;37.50;25.75;;;;;6.13;85.47;102619.38;5040733;28;45360;-78
2022/01/17 00:11:20;;;;;;;;;23.75;23.25;;;;;6.21;84.62;102631.03;5036418;28;45380;-76
2022/01/17 00:13:48;;;;;;;;;31.00;28.75;;;;;6.22;84.64;102638.06;5034186;28;45422;-76
2022/01/17 00:16:22;;;;;;;;;34.75;28.75;;;;;6.22;84.49;102630.19;5048155;28;46135;-77
2022/01/17 00:21:15;;;;;;;;;40.25;32.75;;;;;6.28;84.83;102633.84;5035991;28;45455;-76
2022/01/17 00:23:41;;;;;;;;;39.00;31.50;;;;;6.27;85.42;102638.22;5038979;28;45545;-76
2022/01/17 00:26:06;;;;;;;;;32.50;28.25;;;;;6.21;84.88;102619.63;5052652;28;45549;-77
2022/01/17 00:28:33;;;;;;;;;29.75;26.00;;;;;6.30;84.84;102629.50;5055830;28;45357;-75
2022/01/17 00:31:01;;;;;;;;;36.50;32.75;;;;;6.32;85.34;102619.97;5054868;28;45540;-81
2022/01/17 00:33:27;;;;;;;;;32.50;28.25;;;;;6.30;84.98;102622.53;5018142;28;45560;-80
2022/01/17 00:35:52;;;;;;;;;32.75;28.50;;;;;6.33;86.11;102616.47;5038091;28;45960;-76
2022/01/17 00:38:17;;;;;;;;;29.25;25.25;;;;;6.33;85.60;102625.25;5041375;28;47024;-76
2022/01/17 00:40:43;;;;;;;;;32.75;29.00;;;;;6.31;85.85;102621.66;5045562;28;45363;-75
2022/01/17 00:43:10;;;;;;;;;32.75;24.50;;;;;6.34;85.75;102628.75;5056410;28;45419;-76
2022/01/17 00:45:38;;;;;;;;;35.25;33.50;;;;;6.32;85.56;102612.09;5054410;28;46277;-76
2022/01/17 00:48:04;;;;;;;;;29.00;27.25;;;;;6.33;85.06;102619.09;5055492;28;45516;-75
2022/01/17 00:50:31;;;;;;;;;34.75;29.25;;;;;6.33;85.12;102622.63;5055110;28;45411;-77
2022/01/17 00:53:02;;;;;;;;;33.75;31.75;;;;;6.34;85.04;102624.38;5052330;28;45390;-82
2022/01/17 00:55:29;;;;;;;;;27.75;25.50;;;;;6.25;84.99;102613.63;5020059;28;45494;-81
2022/01/17 00:57:54;;;;;;;;;34.00;33.25;;;;;6.37;84.73;102626.22;5036213;28;45426;-81
2022/01/17 01:00:20;;;;;;;;;31.75;30.50;;;;;6.37;84.97;102629.72;5017277;28;45474;-80
2022/01/17 01:02:46;;;;;;;;;36.25;26.00;;;;;6.35;85.03;102622.69;5035206;28;45414;-80
2022/01/17 01:05:12;;;;;;;;;35.00;27.50;;;;;6.39;84.48;102632.41;5035383;28;46134;-80
2022/01/17 01:07:37;;;;;;;;;34.50;28.50;;;;;6.39;84.38;102628.06;5036800;28;45373;-81
2022/01/17 01:10:07;;;;;;;;;30.00;27.75;;;;;6.41;84.69;102628.13;5043792;28;45632;-80
2022/01/17 01:12:33;;;;;;;;;26.50;22.25;;;;;6.37;84.65;102616.59;5034928;28;45427;-80
2022/01/17 01:14:59;;;;;;;;;31.25;28.00;;;;;6.42;85.16;102621.09;5035194;28;46303;-81
2022/01/17 01:17:47;;;;;;;;;30.00;26.00;;;;;6.39;84.80;102617.56;5038462;28;45521;-82
2022/01/17 01:28:26;;;;;;;;;37.00;31.25;;;;;6.37;84.75;102623.59;5035712;28;45400;-80
2022/01/17 01:30:54;;;;;;;;;30.50;27.00;;;;;6.38;84.44;102623.66;5035089;28;45391;-81
2022/01/17 01:33:28;;;;;;;;;35.50;28.25;;;;;6.38;84.90;102625.41;5043090;28;45490;-81
2022/01/17 01:36:01;;;;;;;;;27.75;25.75;;;;;6.32;84.32;102610.34;5057467;28;46150;-80
2022/01/17 01:38:27;;;;;;;;;29.25;22.75;;;;;6.35;85.08;102615.69;5056685;28;45387;-81
2022/01/17 01:40:52;;;;;;;;;24.50;21.00;;;;;6.36;84.44;102621.81;5059256;28;45380;-81
2022/01/17 01:43:19;;;;;;;;;30.75;22.75;;;;;6.30;84.58;102616.38;5056382;28;45446;-81
2022/01/17 01:45:49;;;;;;;;;39.00;23.50;;;;;6.30;85.04;102605.88;5055822;28;46416;-81
2022/01/17 01:48:15;;;;;;;;;26.25;23.25;;;;;6.31;84.26;102612.91;5035156;28;46071;-80
2022/01/17 01:50:40;;;;;;;;;36.50;25.00;;;;;6.38;84.61;102620.13;5037601;28;45502;-81
2022/01/17 01:53:07;;;;;;;;;24.50;21.00;;;;;6.38;84.58;102626.28;5036215;28;45450;-81
2022/01/17 01:55:33;;;;;;;;;25.25;24.00;;;;;6.40;84.42;102637.72;5036893;28;45446;-81
2022/01/17 01:57:58;;;;;;;;;23.00;17.75;;;;;6.38;84.05;102620.13;5035050;28;45482;-80
2022/01/17 02:00:23;;;;;;;;;31.50;24.00;;;;;6.38;84.49;102633.28;5034699;28;45304;-80
2022/01/17 02:02:49;;;;;;;;;30.25;22.00;;;;;6.36;84.34;102635.84;5034779;28;45609;-80
2022/01/17 02:05:15;;;;;;;;;23.75;22.00;;;;;6.42;84.34;102645.63;5035150;28;46202;-80
2022/01/17 02:07:43;;;;;;;;;26.00;23.00;;;;;6.41;85.40;102646.50;5036393;28;45272;-80
2022/01/17 02:10:09;;;;;;;;;29.00;22.00;;;;;6.42;84.29;102648.25;5020002;28;45419;-80
2022/01/17 02:12:35;;;;;;;;;28.00;24.00;;;;;6.40;84.16;102639.44;5042998;28;45424;-80
2022/01/17 02:15:03;;;;;;;;;23.00;19.75;;;;;6.42;83.97;102643.00;5056429;28;45481;-81
2022/01/17 02:17:32;;;;;;;;;36.75;26.75;;;;;6.36;84.33;102633.22;5044643;28;45446;-80
2022/01/17 02:20:05;;;;;;;;;26.25;25.50;;;;;6.39;84.47;102640.28;5035769;28;45420;-80
2022/01/17 02:22:31;;;;;;;;;35.75;29.50;;;;;6.37;83.87;102639.38;5017270;28;45606;-81
2022/01/17 02:24:57;;;;;;;;;35.00;24.75;;;;;6.38;84.67;102634.16;5035366;28;45948;-80
2022/01/17 02:27:22;;;;;;;;;27.50;22.00;;;;;6.30;83.59;102621.63;5037352;28;45867;-81
2022/01/17 02:29:48;;;;;;;;;28.50;27.00;;;;;6.34;83.73;102634.03;5040246;28;45340;-80
2022/01/17 02:32:13;;;;;;;;;34.75;27.50;;;;;6.29;83.69;102638.25;5040002;28;45355;-81
2022/01/17 02:34:42;;;;;;;;;30.75;25.00;;;;;6.26;83.54;102635.53;5038189;28;45904;-81
2022/01/17 02:37:09;;;;;;;;;30.75;25.75;;;;;6.25;84.20;102631.13;5038128;28;45593;-80
2022/01/17 02:39:35;;;;;;;;;32.25;27.75;;;;;6.12;83.43;102609.75;5041982;28;45400;-81
2022/01/17 02:42:02;;;;;;;;;33.00;27.25;;;;;6.19;83.37;102624.81;5071687;28;45436;-80
2022/01/17 02:44:27;;;;;;;;;36.75;29.25;;;;;6.18;83.41;102622.13;5048753;28;45504;-80
2022/01/17 02:46:53;;;;;;;;;19.75;15.00;;;;;6.16;84.11;102618.59;5042874;28;45486;-80
2022/01/17 02:49:18;;;;;;;;;31.50;22.25;;;;;6.11;83.99;102625.44;5038547;28;45481;-80
2022/01/17 02:51:48;;;;;;;;;33.00;26.75;;;;;6.12;84.25;102616.69;5038335;28;45522;-82
2022/01/17 02:54:15;;;;;;;;;28.00;24.50;;;;;6.08;83.72;102605.22;5037865;28;46273;-80
2022/01/17 02:56:41;;;;;;;;;39.25;29.50;;;;;6.08;83.55;102615.72;5036223;28;45526;-77
2022/01/17 02:59:07;;;;;;;;;30.75;24.50;;;;;6.08;84.37;102617.47;5036865;28;45387;-76
2022/01/17 03:01:32;;;;;;;;;33.00;23.75;;;;;6.06;84.45;102617.44;5036220;28;45661;-77
2022/01/17 03:03:59;;;;;;;;;33.25;24.00;;;;;6.07;84.03;102629.69;5036165;28;47291;-76
2022/01/17 03:06:26;;;;;;;;;29.50;20.75;;;;;6.03;84.07;102620.84;5037620;28;45510;-76
2022/01/17 03:08:52;;;;;;;;;29.50;28.00;;;;;6.08;84.10;102631.47;5037336;28;45387;-77
2022/01/17 03:11:24;;;;;;;;;28.00;27.50;;;;;6.06;84.31;102633.19;5018409;28;45487;-77
2022/01/17 03:13:51;;;;;;;;;30.00;28.50;;;;;6.08;84.13;102644.59;5043168;28;45423;-77
2022/01/17 03:16:18;;;;;;;;;30.75;24.50;;;;;6.08;84.51;102641.97;5041499;28;45471;-75
2022/01/17 03:18:46;;;;;;;;;27.25;25.50;;;;;6.11;84.71;102643.81;5037048;28;45456;-76
2022/01/17 03:21:15;;;;;;;;;32.75;23.00;;;;;6.13;84.28;102648.25;5036754;28;45423;-76
2022/01/17 03:23:42;;;;;;;;;34.25;28.50;;;;;6.08;84.90;102643.72;5036888;28;47197;-75
2022/01/17 03:26:08;;;;;;;;;25.25;21.25;;;;;6.09;84.89;102643.78;5035772;28;45345;-76
2022/01/17 03:28:34;;;;;;;;;32.25;26.25;;;;;6.13;84.36;102656.13;5036577;28;45329;-76
2022/01/17 03:31:00;;;;;;;;;28.25;22.50;;;;;6.13;84.43;102645.63;5044199;28;45217;-75
2022/01/17 03:33:26;;;;;;;;;23.25;22.75;;;;;6.17;84.45;102657.16;5036432;28;45414;-75
2022/01/17 03:35:52;;;;;;;;;25.75;23.25;;;;;6.15;85.09;102651.84;5036378;28;45518;-76
2022/01/17 03:38:22;;;;;;;;;22.00;15.75;;;;;6.21;85.31;102659.91;5036585;28;45411;-76
2022/01/17 03:40:50;;;;;;;;;27.25;24.00;;;;;6.22;85.26;102664.34;5036909;28;45575;-76
2022/01/17 03:43:15;;;;;;;;;30.75;28.75;;;;;6.25;85.14;102675.75;5021298;28;46379;-75
2022/01/17 03:45:41;;;;;;;;;22.75;21.25;;;;;6.25;85.29;102662.63;5042221;28;45392;-75
2022/01/17 03:48:08;;;;;;;;;27.00;21.75;;;;;6.28;85.77;102665.34;5036860;28;45494;-75
2022/01/17 03:50:34;;;;;;;;;30.25;26.50;;;;;6.30;85.16;102663.66;5035750;28;45395;-75
2022/01/17 03:52:59;;;;;;;;;24.00;22.00;;;;;6.26;85.45;102662.69;5036123;28;45374;-74
2022/01/17 03:55:28;;;;;;;;;34.25;28.25;;;;;6.29;85.41;102668.03;5034998;28;45462;-78
2022/01/17 03:57:53;;;;;;;;;30.75;27.00;;;;;6.31;84.69;102674.22;5036074;28;45516;-76
2022/01/17 04:00:29;;;;;;;;;31.00;22.50;;;;;6.33;85.14;102682.13;5035818;28;45418;-76
2022/01/17 04:02:57;;;;;;;;;27.75;21.25;;;;;6.24;85.41;102659.13;5035659;28;45395;-76
2022/01/17 04:05:23;;;;;;;;;22.00;20.00;;;;;6.35;85.00;102686.59;5035736;28;45309;-76
2022/01/17 04:07:49;;;;;;;;;30.00;21.75;;;;;6.34;84.70;102686.56;5038498;28;45396;-79
2022/01/17 04:10:17;;;;;;;;;20.50;18.75;;;;;6.35;85.50;102685.72;5038433;28;45385;-80
2022/01/17 04:12:44;;;;;;;;;22.00;18.75;;;;;6.36;85.18;102691.03;5039626;28;46479;-80
2022/01/17 04:15:11;;;;;;;;;29.50;26.50;;;;;6.41;85.54;102688.53;5042144;28;45249;-80
2022/01/17 04:17:39;;;;;;;;;27.50;24.00;;;;;6.43;85.21;102685.94;5042250;28;45288;-79
2022/01/17 04:20:09;;;;;;;;;26.75;26.25;;;;;6.37;84.45;102684.91;5038903;28;45492;-80
2022/01/17 04:22:40;;;;;;;;;25.00;18.50;;;;;6.43;84.52;102699.97;5039216;28;46355;-80
2022/01/17 04:25:09;;;;;;;;;18.50;17.00;;;;;6.40;83.19;102692.00;5036965;28;45344;-79
2022/01/17 04:27:35;;;;;;;;;27.25;17.00;;;;;6.41;82.98;102704.28;5036548;28;45491;-80
2022/01/17 04:30:04;;;;;;;;;22.00;18.50;;;;;6.44;82.41;102707.00;5041997;28;45406;-80
2022/01/17 04:32:29;;;;;;;;;19.75;17.00;;;;;6.47;83.03;102708.81;5052573;28;46233;-80
2022/01/17 04:34:55;;;;;;;;;17.00;15.00;;;;;6.44;81.99;102692.97;5057495;28;45499;-81
2022/01/17 04:37:20;;;;;;;;;28.00;22.75;;;;;6.50;82.44;102691.44;5058696;28;45401;-80
2022/01/17 04:39:45;;;;;;;;;17.50;14.50;;;;;6.45;81.10;102685.13;5056137;28;45438;-80
2022/01/17 04:42:12;;;;;;;;;12.25;9.00;;;;;6.42;80.71;102677.16;5038063;28;46121;-79
2022/01/17 04:47:26;;;;;;;;;14.75;13.75;;;;;6.38;80.98;102662.16;5044983;28;45375;-80
2022/01/17 04:49:52;;;;;;;;;17.00;17.00;;;;;6.50;80.80;102688.81;5036453;28;45462;-80
2022/01/17 04:52:17;;;;;;;;;17.50;15.75;;;;;6.48;80.01;102685.22;5037192;28;45284;-81
2022/01/17 04:54:45;;;;;;;;;15.50;15.50;;;;;6.50;79.93;102694.06;5036749;28;45360;-80
2022/01/17 04:57:12;;;;;;;;;15.50;13.75;;;;;6.54;79.39;102697.66;5037754;28;45393;-80
2022/01/17 04:59:42;;;;;;;;;12.50;10.00;;;;;6.54;79.32;102701.22;5047640;28;45421;-80
2022/01/17 05:02:09;;;;;;;;;17.50;13.00;;;;;6.53;79.44;102698.53;5056723;28;46008;-80
2022/01/17 05:04:35;;;;;;;;;12.75;11.50;;;;;6.54;79.85;102706.47;5037439;28;45434;-81
2022/01/17 05:07:00;;;;;;;;;20.00;12.75;;;;;6.56;79.68;102703.88;5018037;28;45428;-81
2022/01/17 05:09:26;;;;;;;;;12.50;10.00;;;;;6.53;78.66;102694.16;5036294;28;45486;-79
2022/01/17 05:11:52;;;;;;;;;13.00;12.75;;;;;6.47;78.65;102678.22;5039566;28;45438;-80
2022/01/17 05:14:17;;;;;;;;;16.00;13.00;;;;;6.39;78.39;102664.84;5040268;28;45812;-80
2022/01/17 05:16:48;;;;;;;;;15.25;12.50;;;;;6.55;77.94;102689.81;5040055;28;45765;-80
2022/01/17 05:21:58;;;;;;;;;12.75;6.00;;;;;6.56;76.87;102715.28;5035580;28;45730;-80
2022/01/17 05:24:23;;;;;;;;;12.75;11.50;;;;;6.55;77.14;102716.09;5035332;28;45342;-80
2022/01/17 05:26:49;;;;;;;;;14.50;10.50;;;;;6.53;77.63;102717.81;5035844;28;45655;-80
2022/01/17 05:29:15;;;;;;;;;15.00;13.00;;;;;6.54;77.30;102716.97;5016438;28;45596;-80
2022/01/17 05:31:40;;;;;;;;;16.50;12.25;;;;;6.53;77.12;102715.19;5036556;28;46120;-80
2022/01/17 05:34:06;;;;;;;;;14.50;11.75;;;;;6.52;77.81;102713.38;5038417;28;45428;-82
2022/01/17 05:36:39;;;;;;;;;10.50;10.50;;;;;6.53;77.00;102720.44;5036101;28;45399;-78
2022/01/17 05:39:05;;;;;;;;;18.25;13.00;;;;;6.48;77.22;102710.63;5049336;28;45510;-76
2022/01/17 05:41:30;;;;;;;;;16.75;13.50;;;;;6.50;77.20;102730.84;5034337;28;46207;-76
2022/01/17 05:43:55;;;;;;;;;13.50;12.00;;;;;6.48;76.97;102722.00;5016739;28;45467;-76
2022/01/17 05:46:22;;;;;;;;;16.25;15.50;;;;;6.47;76.23;102716.69;5034754;28;46019;-74
2022/01/17 05:48:47;;;;;;;;;15.00;11.00;;;;;6.41;77.22;102709.56;5041636;28;45361;-76
2022/01/17 05:51:13;;;;;;;;;11.75;11.00;;;;;6.40;77.58;102731.41;5034603;28;45397;-77
2022/01/17 05:53:38;;;;;;;;;13.25;12.25;;;;;6.39;77.56;102732.22;5017720;28;45504;-80
2022/01/17 05:56:04;;;;;;;;;16.00;15.75;;;;;6.37;77.60;102728.69;5039034;28;45416;-81
2022/01/17 05:58:29;;;;;;;;;21.75;16.00;;;;;6.38;78.30;102740.97;5038419;28;45565;-81
2022/01/17 06:00:54;;;;;;;;;16.50;15.75;;;;;6.35;79.19;102736.50;5037437;28;45442;-80
2022/01/17 06:03:21;;;;;;;;;13.50;13.50;;;;;6.34;79.13;102732.09;5040034;28;45405;-79
2022/01/17 06:05:46;;;;;;;;;14.50;14.50;;;;;6.31;79.56;102728.47;5051564;28;45288;-80
2022/01/17 06:08:12;;;;;;;;;18.75;15.75;;;;;6.32;80.52;102731.16;5059609;28;45518;-80
2022/01/17 06:10:38;;;;;;;;;27.50;20.25;;;;;6.31;80.10;102729.38;5061269;28;45405;-81
2022/01/17 06:13:06;;;;;;;;;16.50;16.50;;;;;6.28;80.38;102726.63;5062245;28;45462;-80
2022/01/17 06:15:31;;;;;;;;;23.75;20.00;;;;;6.30;80.79;102731.94;5059245;28;45386;-81
2022/01/17 06:17:56;;;;;;;;;18.00;14.50;;;;;6.27;81.63;102742.34;5062278;28;45355;-80
2022/01/17 06:20:22;;;;;;;;;27.50;23.75;;;;;6.28;80.52;102736.25;5047330;28;53848;-80
2022/01/17 06:22:47;;;;;;;;;24.50;17.75;;;;;6.23;81.23;102729.13;5044992;28;45329;-80
2022/01/17 06:25:15;;;;;;;;;21.00;16.00;;;;;6.23;81.50;102739.63;5060860;28;45394;-81
2022/01/17 06:27:40;;;;;;;;;29.75;20.00;;;;;6.19;81.10;102736.84;5058843;28;45381;-80
2022/01/17 06:30:07;;;;;;;;;17.50;15.75;;;;;6.08;80.99;102726.00;5043478;28;45567;-81
2022/01/17 06:32:34;;;;;;;;;26.75;19.75;;;;;6.07;81.42;102739.09;5038981;28;45376;-80
2022/01/17 06:35:03;;;;;;;;;19.00;17.00;;;;;6.10;81.48;102757.56;5044330;28;45383;-80
2022/01/17 06:37:29;;;;;;;;;24.00;21.50;;;;;6.03;81.78;102754.72;5040476;28;45330;-81
2022/01/17 06:39:54;;;;;;;;;17.00;15.25;;;;;6.01;81.23;102755.50;5058695;28;46147;-81
2022/01/17 06:42:21;;;;;;;;;27.75;17.50;;;;;5.98;81.86;102771.16;5058199;28;45327;-80
2022/01/17 06:44:47;;;;;;;;;24.25;19.50;;;;;5.94;81.47;102775.41;5060029;28;45302;-81
2022/01/17 06:47:12;;;;;;;;;18.00;17.50;;;;;5.82;81.37;102760.13;5063841;28;45632;-81
2022/01/17 06:49:37;;;;;;;;;17.75;17.50;;;;;5.84;82.20;102786.41;5063676;28;45347;-80
2022/01/17 06:52:03;;;;;;;;;28.00;19.75;;;;;5.87;81.58;102804.91;5051719;28;45373;-81
2022/01/17 06:54:28;;;;;;;;;23.25;16.75;;;;;5.86;81.68;102809.25;5037780;28;45413;-80
2022/01/17 06:56:54;;;;;;;;;19.25;14.75;;;;;5.82;82.22;102796.84;5037949;28;45273;-80
2022/01/17 06:59:19;;;;;;;;;19.25;18.25;;;;;5.82;81.99;102777.59;5038567;28;45432;-79
2022/01/17 07:01:45;;;;;;;;;20.75;18.00;;;;;5.81;82.61;102784.56;5038608;28;45454;-79
2022/01/17 07:04:10;;;;;;;;;19.00;18.50;;;;;5.77;82.33;102773.91;5047470;28;45390;-79
2022/01/17 07:06:38;;;;;;;;;17.50;14.75;;;;;5.80;82.47;102788.06;5057530;28;45473;-79
2022/01/17 07:09:05;;;;;;;;;22.75;21.25;;;;;5.82;81.92;102794.22;5057698;28;46077;-79
2022/01/17 07:11:38;;;;;;;;;22.25;16.75;;;;;5.81;82.35;102787.19;5038726;28;45440;-79
2022/01/17 07:14:08;;;;;;;;;23.50;20.50;;;;;5.84;82.08;102810.03;5043367;28;45543;-78
2022/01/17 07:16:35;;;;;;;;;19.25;15.00;;;;;5.86;82.11;102830.25;5036230;28;45391;-80
2022/01/17 07:19:01;;;;;;;;;20.00;18.50;;;;;5.74;82.41;102814.09;5019895;28;45402;-79
2022/01/17 07:21:26;;;;;;;;;27.50;18.25;;;;;5.85;82.28;102854.72;5043500;28;45477;-80
2022/01/17 07:23:52;;;;;;;;;22.75;18.00;;;;;5.85;82.43;102843.31;5042086;28;45377;-79
2022/01/17 07:26:17;;;;;;;;;22.25;20.00;;;;;5.88;81.91;102860.06;5039226;28;45458;-80
2022/01/17 07:28:42;;;;;;;;;32.50;23.50;;;;;5.92;81.36;102865.44;5038646;28;50604;-79
2022/01/17 07:31:08;;;;;;;;;22.00;17.75;;;;;5.89;82.09;102847.84;5055894;28;45464;-79
2022/01/17 07:33:37;;;;;;;;;26.00;21.75;;;;;5.88;82.27;102833.81;5036937;28;45386;-79
2022/01/17 07:36:07;;;;;;;;;22.25;19.00;;;;;5.89;82.08;102824.22;5038957;28;45582;-79
2022/01/17 07:38:34;;;;;;;;;17.50;16.25;;;;;5.88;82.12;102828.56;5038819;28;45464;-80
2022/01/17 07:41:00;;;;;;;;;30.75;26.50;;;;;5.82;82.15;102838.84;5036402;28;45369;-80
2022/01/17 07:43:25;;;;;;;;;25.50;20.00;;;;;5.80;81.78;102832.66;5035657;28;45404;-79
2022/01/17 07:46:04;;;;;;;;;38.50;22.00;;;;;5.76;82.17;102827.25;5018797;28;45566;-78
2022/01/17 07:51:30;;;;;;;;;21.50;18.25;;;;;5.72;81.58;102825.34;4998653;28;45512;-80
2022/01/17 07:53:56;;;;;;;;;24.75;21.00;;;;;5.72;82.26;102843.72;5001620;28;45382;-80
2022/01/17 07:56:24;;;;;;;;;23.50;21.75;;;;;5.71;81.78;102842.84;4993574;28;45549;-81
2022/01/17 07:58:50;;;;;;;;;21.50;21.00;;;;;5.73;81.69;102850.75;4999504;28;45581;-81
2022/01/17 08:01:16;;;;;;;;;27.50;24.50;;;;;5.74;82.19;102852.53;5007528;28;45572;-79
2022/01/17 08:03:41;;;;;;;;;23.00;22.00;;;;;5.73;81.64;102849.03;5002904;28;45582;-78
2022/01/17 08:06:07;;;;;;;;;28.00;22.00;;;;;5.77;81.83;102856.19;4994943;28;45611;-80
2022/01/17 08:08:33;;;;;;;;;30.00;21.00;;;;;5.79;81.40;102857.13;5002922;28;45722;-80
2022/01/17 08:10:58;;;;;;;;;40.50;27.75;;;;;5.83;80.99;102859.03;5004030;28;45540;-80
2022/01/17 08:13:23;;;;;;;;;23.25;22.75;;;;;5.87;80.86;102858.28;5006383;28;45526;-80
2022/01/17 08:15:49;;;;;;;;;34.50;26.00;;;;;5.88;81.18;102852.19;4997609;28;45649;-81
2022/01/17 08:18:15;;;;;;;;;35.50;28.00;;;;;5.94;81.12;102858.53;4994851;28;45695;-80
2022/01/17 08:20:43;;;;;;;;;32.75;26.00;;;;;5.98;81.17;102861.34;4997405;28;45495;-81
2022/01/17 08:23:10;;;;;;;;;38.00;31.00;;;;;6.04;81.02;102876.38;5018893;28;45388;-80
2022/01/17 08:25:36;;;;;;;;;35.50;29.75;;;;;6.07;80.49;102870.38;5010344;28;45493;-80
2022/01/17 08:28:02;;;;;;;;;35.75;27.50;;;;;6.11;80.62;102875.78;5035475;28;45494;-81
2022/01/17 08:30:28;;;;;;;;;33.00;28.25;;;;;6.22;79.91;102855.13;5052245;28;45470;-79
2022/01/17 08:32:55;;;;;;;;;33.75;24.75;;;;;7.04;78.41;102852.53;5037877;28;45929;-79
2022/01/17 08:35:21;;;;;;;;;31.00;24.50;;;;;7.84;76.45;102862.75;5065385;28;45456;-80
2022/01/17 08:37:46;;;;;;;;;31.75;31.25;;;;;8.03;73.73;102863.25;5035321;28;45555;-80
2022/01/17 08:40:13;;;;;;;;;28.00;25.50;;;;;8.54;73.13;102865.47;5053509;28;45559;-80
2022/01/17 08:42:38;;;;;;;;;26.75;21.50;;;;;9.24;70.96;102867.97;5049366;28;45508;-79
2022/01/17 08:45:10;;;;;;;;;25.50;22.50;;;;;9.90;68.37;102866.69;5047061;28;45517;-80
2022/01/17 08:47:35;;;;;;;;;35.00;26.00;;;;;9.94;66.68;102872.91;5039154;28;45414;-80
2022/01/17 08:50:02;;;;;;;;;33.50;32.75;;;;;9.85;66.52;102872.75;5043287;28;45297;-80
2022/01/17 08:52:28;;;;;;;;;29.75;26.00;;;;;10.21;66.09;102869.91;5045769;28;45355;-78
2022/01/17 08:54:53;;;;;;;;;33.50;27.50;;;;;10.80;64.26;102873.56;5057622;28;45304;-80
2022/01/17 08:57:19;;;;;;;;;31.25;28.25;;;;;11.24;63.05;102864.50;5038372;28;45415;-80
2022/01/17 08:59:45;;;;;;;;;27.50;21.75;;;;;11.72;61.38;102873.91;5040991;28;45439;-81
2022/01/17 09:02:11;;;;;;;;;26.50;21.50;;;;;12.19;59.88;102868.28;5044245;28;45436;-80
2022/01/17 09:04:40;;;;;;;;;29.25;25.00;;;;;12.81;58.48;102882.03;5044172;28;45339;-78
2022/01/17 09:07:11;;;;;;;;;28.00;24.25;;;;;13.33;56.62;102877.09;5020869;28;47031;-78
2022/01/17 09:09:38;;;;;;;;;25.75;18.00;;;;;13.35;55.50;102871.78;5036254;28;45414;-76
2022/01/17 09:12:05;;;;;;;;;29.00;24.75;;;;;13.24;55.47;102876.09;5045069;28;45434;-79
2022/01/17 09:14:30;;;;;;;;;35.75;29.25;;;;;13.67;55.35;102871.91;5047922;28;45330;-78
2022/01/17 09:16:56;;;;;;;;;25.00;21.75;;;;;13.84;54.30;102874.59;5038333;28;46117;-79
2022/01/17 09:19:21;;;;;;;;;29.75;24.50;;;;;13.63;53.77;102883.38;5039662;28;45387;-78
2022/01/17 09:21:47;;;;;;;;;25.75;21.75;;;;;13.29;54.14;102885.88;5043742;28;45359;-78
2022/01/17 09:24:12;;;;;;;;;34.00;24.50;;;;;12.89;54.97;102901.56;5050287;28;45261;-78
2022/01/17 09:26:37;;;;;;;;;28.75;23.00;;;;;12.47;56.43;102912.72;5044377;28;46042;-76
2022/01/17 09:29:03;;;;;;;;;38.00;24.25;;;;;12.09;56.93;102911.47;5038356;28;45423;-78
2022/01/17 09:31:28;;;;;;;;;32.75;26.50;;;;;11.85;57.91;102925.28;5044654;28;45423;-79
2022/01/17 09:33:54;;;;;;;;;34.75;27.75;;;;;11.65;58.89;102940.94;5038907;28;45427;-78
2022/01/17 09:36:20;;;;;;;;;33.25;26.50;;;;;11.40;59.56;102934.41;5043817;28;46120;-78
2022/01/17 09:38:46;;;;;;;;;36.75;28.25;;;;;11.18;60.12;102950.88;5045754;28;45431;-78
2022/01/17 09:41:13;;;;;;;;;32.25;25.00;;;;;10.95;60.80;102947.00;5056123;28;45378;-79
2022/01/17 09:43:39;;;;;;;;;34.75;26.00;;;;;10.81;61.52;102945.00;5046903;28;45388;-78
2022/01/17 09:46:07;;;;;;;;;30.25;26.50;;;;;10.60;62.06;102916.44;5046355;28;47523;-78
2022/01/17 09:48:37;;;;;;;;;26.25;22.00;;;;;10.63;62.34;102923.56;5025697;28;45401;-79
2022/01/17 09:51:16;;;;;;;;;36.50;22.50;;;;;10.39;62.97;102902.84;5044734;28;45501;-78
2022/01/17 09:53:42;;;;;;;;;33.00;25.00;;;;;10.46;63.23;102926.78;5059055;28;45630;-78
2022/01/17 09:56:08;;;;;;;;;34.00;25.50;;;;;10.45;63.06;102924.13;5051160;28;46595;-77
2022/01/17 09:58:39;;;;;;;;;34.25;28.00;;;;;10.48;63.57;102935.63;5040560;28;45375;-78
2022/01/17 10:01:07;;;;;;;;;29.25;27.50;;;;;10.50;63.31;102948.88;5046150;28;45510;-79
2022/01/17 10:03:32;;;;;;;;;40.50;26.00;;;;;10.49;62.98;102955.00;5040331;28;45491;-77
2022/01/17 10:05:58;;;;;;;;;27.75;20.75;;;;;10.39;63.43;102945.16;5051195;28;46075;-78
2022/01/17 10:08:24;;;;;;;;;20.00;18.50;;;;;10.34;63.58;102955.66;5017568;28;45392;-78
2022/01/17 10:10:58;;;;;;;;;29.25;25.00;;;;;10.33;63.37;102969.72;5034555;28;45446;-78
2022/01/17 10:13:32;;;;;;;;;24.00;20.50;;;;;10.21;63.98;102980.91;5029085;28;45402;-80
2022/01/17 10:16:00;;;;;;;;;32.50;25.25;;;;;10.14;63.75;102971.06;5015196;28;45506;-78
2022/01/17 10:18:40;;;;;;;;;32.00;25.50;;;;;9.94;63.82;102962.75;5034629;28;45597;-79
2022/01/17 10:21:26;;;;;;;;;24.00;21.25;;;;;9.97;64.14;102978.66;5046907;28;45355;-78
2022/01/17 10:27:02;;;;;;;;;24.50;20.50;;;;;9.86;64.80;102982.84;5045808;28;45466;-79
2022/01/17 10:35:18;;;;;;;;;42.00;19.75;;;;;9.71;65.43;102973.72;5047470;28;45505;-79
2022/01/17 10:38:10;;;;;;;;;32.25;23.00;;;;;9.63;65.37;102975.31;5043300;28;45574;-77
2022/01/17 10:40:38;;;;;;;;;25.25;22.00;;;;;9.60;66.00;102999.00;5037802;28;45415;-80
2022/01/17 10:43:08;;;;;;;;;29.50;25.25;;;;;9.52;66.39;102992.63;5037088;28;45525;-79
2022/01/17 10:45:41;;;;;;;;;40.75;31.25;;;;;9.48;66.20;103004.00;5041426;28;45344;-80
2022/01/17 10:48:07;;;;;;;;;24.75;22.25;;;;;9.41;66.34;102992.41;5053558;28;46434;-81
2022/01/17 10:50:59;;;;;;;;;37.75;27.50;;;;;9.32;66.51;102981.63;5036907;28;45461;-80
2022/01/17 10:53:25;;;;;;;;;31.50;27.00;;;;;9.24;66.46;102984.09;5028564;28;44845;-79
2022/01/17 10:55:54;;;;;;;;;24.75;24.25;;;;;9.23;67.44;102977.03;5043897;28;45396;-79
2022/01/17 10:58:31;;;;;;;;;31.25;27.00;;;;;9.23;67.76;102972.66;5049587;28;45692;-78
2022/01/17 11:00:59;;;;;;;;;28.75;25.75;;;;;9.20;67.13;102967.31;5043064;28;45503;-82
2022/01/17 11:03:30;;;;;;;;;31.75;25.25;;;;;9.07;67.17;102930.94;5041744;28;45550;-83
2022/01/17 11:05:58;;;;;;;;;21.50;20.50;;;;;9.19;67.43;102946.16;5048076;28;45586;-79
2022/01/17 11:08:28;;;;;;;;;29.50;26.75;;;;;9.17;67.06;102929.38;5056343;28;47077;-79
2022/01/17 11:10:56;;;;;;;;;29.50;23.75;;;;;9.56;67.89;102944.34;5055848;28;45447;-80
2022/01/17 11:13:24;;;;;;;;;25.50;25.25;;;;;10.49;65.42;102932.13;5048816;28;45514;-80
2022/01/17 11:15:58;;;;;;;;;40.50;34.00;;;;;11.28;62.74;102937.78;5051855;28;45894;-80
2022/01/17 11:18:28;;;;;;;;;34.75;29.50;;;;;11.51;62.05;102930.19;5046354;28;45418;-80
2022/01/17 11:20:58;;;;;;;;;32.00;26.75;;;;;12.04;60.68;102932.63;5050549;28;45470;-80
2022/01/17 11:23:26;;;;;;;;;31.25;23.75;;;;;12.56;59.16;102923.41;5050013;28;45504;-79
2022/01/17 11:25:55;;;;;;;;;27.25;23.00;;;;;13.16;57.31;102926.50;5052944;28;45283;-80
2022/01/17 11:28:26;;;;;;;;;24.75;21.50;;;;;13.78;54.78;102926.88;5051650;28;46019;-80
2022/01/17 11:30:55;;;;;;;;;26.00;23.50;;;;;13.74;54.25;102919.75;5049483;28;45454;-81
2022/01/17 11:33:21;;;;;;;;;30.75;22.00;;;;;13.42;55.17;102924.06;5034119;28;45490;-81
2022/01/17 11:35:51;;;;;;;;;23.00;19.00;;;;;13.14;55.36;102917.66;5046491;28;45470;-79
2022/01/17 11:38:40;;;;;;;;;23.50;23.25;;;;;12.80;56.59;102920.97;5039441;28;45518;-80
2022/01/17 11:41:19;;;;;;;;;26.00;23.75;;;;;12.45;56.71;102904.75;5043941;28;45411;-79
2022/01/17 11:43:55;;;;;;;;;32.00;22.00;;;;;12.30;58.24;102909.88;5052838;28;45457;-79
2022/01/17 11:46:27;;;;;;;;;22.75;22.00;;;;;12.22;58.10;102910.72;5045218;28;45517;-80